sensor_id;sensor_type;location;lat;lon;timestamp;temperature;humidity
70149;DHT22;57514;52.164;5.282;2022-08-03T00:01:28;21.80;90.90
70149;DHT22;57514;52.164;5.282;2022-08-03T00:03:54;18.80;83.60
70149;DHT22;57514;52.164;5.282;2022-08-03T00:11:16;21.60;90.50
70149;DHT22;57514;52.164;5.282;2022-08-03T00:18:37;18.60;85.40
70149;DHT22;57514;52.164;5.282;2022-08-03T00:23:32;20.70;83.60
70149;DHT22;57514;52.164;5.282;2022-08-03T00:31:12;18.60;90.70
70149;DHT22;57514;52.164;5.282;2022-08-03T00:33:39;21.30;91.30
70149;DHT22;57514;52.164;5.282;2022-08-03T00:38:53;18.50;90.60
70149;DHT22;57514;52.164;5.282;2022-08-03T00:41:20;18.60;90.80
70149;DHT22;57514;52.164;5.282;2022-08-03T00:43:47;18.60;90.00
70149;DHT22;57514;52.164;5.282;2022-08-03T00:48:50;19.70;77.80
70149;DHT22;57514;52.164;5.282;2022-08-03T00:51:18;19.90;78.80
70149;DHT22;57514;52.164;5.282;2022-08-03T00:53:45;18.40;80.90
70149;DHT22;57514;52.164;5.282;2022-08-03T00:56:16;19.90;78.20
70149;DHT22;57514;52.164;5.282;2022-08-03T00:58:44;19.90;79.80
70149;DHT22;57514;52.164;5.282;2022-08-03T01:03:39;19.70;79.80
70149;DHT22;57514;52.164;5.282;2022-08-03T01:08:57;21.10;91.20
70149;DHT22;57514;52.164;5.282;2022-08-03T01:11:50;19.80;78.40
70149;DHT22;57514;52.164;5.282;2022-08-03T01:17:10;19.70;80.60
70149;DHT22;57514;52.164;5.282;2022-08-03T01:25:09;19.70;79.40
70149;DHT22;57514;52.164;5.282;2022-08-03T01:28:01;18.40;84.10
70149;DHT22;57514;52.164;5.282;2022-08-03T01:30:37;18.40;86.10
70149;DHT22;57514;52.164;5.282;2022-08-03T01:33:10;20.60;81.80
70149;DHT22;57514;52.164;5.282;2022-08-03T01:35:39;21.00;91.90
70149;DHT22;57514;52.164;5.282;2022-08-03T01:38:14;20.80;90.90
70149;DHT22;57514;52.164;5.282;2022-08-03T01:40:41;19.10;87.70
70149;DHT22;57514;52.164;5.282;2022-08-03T01:43:13;17.90;91.90
70149;DHT22;57514;52.164;5.282;2022-08-03T01:46:02;18.30;92.10
70149;DHT22;57514;52.164;5.282;2022-08-03T01:48:30;19.40;92.30
70149;DHT22;57514;52.164;5.282;2022-08-03T01:50:58;19.40;82.50
70149;DHT22;57514;52.164;5.282;2022-08-03T01:53:26;19.30;82.60
70149;DHT22;57514;52.164;5.282;2022-08-03T01:55:55;20.60;92.90
70149;DHT22;57514;52.164;5.282;2022-08-03T01:58:23;19.40;83.10
70149;DHT22;57514;52.164;5.282;2022-08-03T02:00:51;19.30;83.30
70149;DHT22;57514;52.164;5.282;2022-08-03T02:03:20;20.20;88.70
70149;DHT22;57514;52.164;5.282;2022-08-03T02:05:48;22.70;86.30
70149;DHT22;57514;52.164;5.282;2022-08-03T02:08:35;19.40;84.40
70149;DHT22;57514;52.164;5.282;2022-08-03T02:11:04;19.80;92.30
70149;DHT22;57514;52.164;5.282;2022-08-03T02:13:33;19.30;83.00
70149;DHT22;57514;52.164;5.282;2022-08-03T02:16:02;18.00;89.50
70149;DHT22;57514;52.164;5.282;2022-08-03T02:18:33;20.00;93.00
70149;DHT22;57514;52.164;5.282;2022-08-03T02:21:01;19.30;83.60
70149;DHT22;57514;52.164;5.282;2022-08-03T02:23:37;18.20;92.80
70149;DHT22;57514;52.164;5.282;2022-08-03T02:26:07;19.30;83.90
70149;DHT22;57514;52.164;5.282;2022-08-03T02:28:37;19.80;86.00
70149;DHT22;57514;52.164;5.282;2022-08-03T02:31:12;19.30;84.30
70149;DHT22;57514;52.164;5.282;2022-08-03T02:33:42;19.20;84.50
70149;DHT22;57514;52.164;5.282;2022-08-03T02:36:10;19.80;88.60
70149;DHT22;57514;52.164;5.282;2022-08-03T02:38:42;19.90;93.60
70149;DHT22;57514;52.164;5.282;2022-08-03T02:41:15;19.30;84.80
70149;DHT22;57514;52.164;5.282;2022-08-03T02:43:47;21.10;85.70
70149;DHT22;57514;52.164;5.282;2022-08-03T02:46:36;19.30;85.10
70149;DHT22;57514;52.164;5.282;2022-08-03T02:49:05;17.90;93.40
70149;DHT22;57514;52.164;5.282;2022-08-03T02:51:53;19.90;87.50
70149;DHT22;57514;52.164;5.282;2022-08-03T02:54:22;20.50;94.00
70149;DHT22;57514;52.164;5.282;2022-08-03T02:56:51;19.20;85.00
70149;DHT22;57514;52.164;5.282;2022-08-03T02:59:20;19.60;93.60
70149;DHT22;57514;52.164;5.282;2022-08-03T03:01:48;20.70;87.20
70149;DHT22;57514;52.164;5.282;2022-08-03T03:04:15;19.20;84.60
70149;DHT22;57514;52.164;5.282;2022-08-03T03:06:47;17.80;86.00
70149;DHT22;57514;52.164;5.282;2022-08-03T03:09:15;19.20;85.20
70149;DHT22;57514;52.164;5.282;2022-08-03T03:11:43;20.70;92.20
70149;DHT22;57514;52.164;5.282;2022-08-03T03:14:10;19.80;85.70
70149;DHT22;57514;52.164;5.282;2022-08-03T03:16:40;19.60;91.80
70149;DHT22;57514;52.164;5.282;2022-08-03T03:19:08;19.00;85.60
70149;DHT22;57514;52.164;5.282;2022-08-03T03:21:36;20.10;90.30
70149;DHT22;57514;52.164;5.282;2022-08-03T03:24:05;18.00;93.60
70149;DHT22;57514;52.164;5.282;2022-08-03T03:26:33;18.20;85.20
70149;DHT22;57514;52.164;5.282;2022-08-03T03:36:29;19.90;92.20
70149;DHT22;57514;52.164;5.282;2022-08-03T03:46:18;17.90;94.00
70149;DHT22;57514;52.164;5.282;2022-08-03T03:48:45;18.20;91.50
70149;DHT22;57514;52.164;5.282;2022-08-03T03:56:06;19.90;94.60
70149;DHT22;57514;52.164;5.282;2022-08-03T03:58:33;17.60;93.40
70149;DHT22;57514;52.164;5.282;2022-08-03T04:03:27;17.40;94.00
70149;DHT22;57514;52.164;5.282;2022-08-03T04:11:41;18.90;94.40
70149;DHT22;57514;52.164;5.282;2022-08-03T04:14:12;19.90;94.70
70149;DHT22;57514;52.164;5.282;2022-08-03T04:16:42;19.80;94.60
70149;DHT22;57514;52.164;5.282;2022-08-03T04:19:18;19.20;92.60
70149;DHT22;57514;52.164;5.282;2022-08-03T04:21:52;19.00;86.80
70149;DHT22;57514;52.164;5.282;2022-08-03T04:24:24;20.20;88.30
70149;DHT22;57514;52.164;5.282;2022-08-03T04:26:52;20.10;94.70
70149;DHT22;57514;52.164;5.282;2022-08-03T04:29:21;17.50;94.10
70149;DHT22;57514;52.164;5.282;2022-08-03T04:31:50;20.50;92.90
70149;DHT22;57514;52.164;5.282;2022-08-03T04:34:19;18.30;87.50
70149;DHT22;57514;52.164;5.282;2022-08-03T04:36:52;18.90;85.10
70149;DHT22;57514;52.164;5.282;2022-08-03T04:39:25;18.00;89.80
70149;DHT22;57514;52.164;5.282;2022-08-03T04:41:59;19.10;87.00
70149;DHT22;57514;52.164;5.282;2022-08-03T04:44:39;19.10;87.60
70149;DHT22;57514;52.164;5.282;2022-08-03T04:47:06;19.10;85.90
70149;DHT22;57514;52.164;5.282;2022-08-03T04:49:35;20.60;94.30
70149;DHT22;57514;52.164;5.282;2022-08-03T04:52:05;19.00;86.80
70149;DHT22;57514;52.164;5.282;2022-08-03T04:54:42;18.70;94.20
70149;DHT22;57514;52.164;5.282;2022-08-03T04:57:16;18.30;94.30
70149;DHT22;57514;52.164;5.282;2022-08-03T04:59:50;18.20;94.10
70149;DHT22;57514;52.164;5.282;2022-08-03T05:02:28;17.70;94.00
70149;DHT22;57514;52.164;5.282;2022-08-03T05:07:22;20.70;94.70
70149;DHT22;57514;52.164;5.282;2022-08-03T05:09:51;20.50;94.60
70149;DHT22;57514;52.164;5.282;2022-08-03T05:14:58;19.30;85.20
70149;DHT22;57514;52.164;5.282;2022-08-03T05:17:25;18.40;93.90
70149;DHT22;57514;52.164;5.282;2022-08-03T05:19:53;18.30;93.60
70149;DHT22;57514;52.164;5.282;2022-08-03T05:22:21;20.90;94.20
70149;DHT22;57514;52.164;5.282;2022-08-03T05:24:48;20.90;94.00
70149;DHT22;57514;52.164;5.282;2022-08-03T05:27:15;19.40;93.70
70149;DHT22;57514;52.164;5.282;2022-08-03T05:29:48;18.30;93.50
70149;DHT22;57514;52.164;5.282;2022-08-03T05:32:16;20.80;93.00
70149;DHT22;57514;52.164;5.282;2022-08-03T05:42:05;20.10;86.90
70149;DHT22;57514;52.164;5.282;2022-08-03T05:51:53;19.40;87.20
70149;DHT22;57514;52.164;5.282;2022-08-03T06:07:18;21.40;93.10
70149;DHT22;57514;52.164;5.282;2022-08-03T06:09:44;20.60;92.70
70149;DHT22;57514;52.164;5.282;2022-08-03T06:15:02;22.20;92.00
70149;DHT22;57514;52.164;5.282;2022-08-03T06:20:04;21.90;83.70
70149;DHT22;57514;52.164;5.282;2022-08-03T06:24:58;24.50;85.00
70149;DHT22;57514;52.164;5.282;2022-08-03T06:27:33;22.30;82.60
70149;DHT22;57514;52.164;5.282;2022-08-03T06:30:03;24.20;75.20
70149;DHT22;57514;52.164;5.282;2022-08-03T06:32:31;23.50;85.90
70149;DHT22;57514;52.164;5.282;2022-08-03T06:37:25;26.10;71.80
70149;DHT22;57514;52.164;5.282;2022-08-03T06:39:53;25.00;79.20
70149;DHT22;57514;52.164;5.282;2022-08-03T06:42:20;25.90;78.60
70149;DHT22;57514;52.164;5.282;2022-08-03T06:44:48;26.40;76.70
70149;DHT22;57514;52.164;5.282;2022-08-03T06:47:15;27.80;75.40
70149;DHT22;57514;52.164;5.282;2022-08-03T06:49:42;27.10;74.40
70149;DHT22;57514;52.164;5.282;2022-08-03T06:54:36;27.50;70.70
70149;DHT22;57514;52.164;5.282;2022-08-03T06:57:03;27.90;72.20
70149;DHT22;57514;52.164;5.282;2022-08-03T06:59:29;26.80;72.20
70149;DHT22;57514;52.164;5.282;2022-08-03T07:02:16;28.10;71.60
70149;DHT22;57514;52.164;5.282;2022-08-03T07:04:47;28.20;70.00
70149;DHT22;57514;52.164;5.282;2022-08-03T07:07:14;27.70;68.70
70149;DHT22;57514;52.164;5.282;2022-08-03T07:12:23;28.00;52.30
70149;DHT22;57514;52.164;5.282;2022-08-03T07:14:49;30.50;66.20
70149;DHT22;57514;52.164;5.282;2022-08-03T07:19:43;29.30;64.90
70149;DHT22;57514;52.164;5.282;2022-08-03T07:24:38;29.00;64.70
70149;DHT22;57514;52.164;5.282;2022-08-03T07:29:33;29.80;62.10
70149;DHT22;57514;52.164;5.282;2022-08-03T07:32:00;30.60;60.10
70149;DHT22;57514;52.164;5.282;2022-08-03T07:34:27;29.90;61.30
70149;DHT22;57514;52.164;5.282;2022-08-03T07:41:49;32.20;59.00
70149;DHT22;57514;52.164;5.282;2022-08-03T07:44:20;31.90;57.40
70149;DHT22;57514;52.164;5.282;2022-08-03T07:51:41;31.50;56.80
70149;DHT22;57514;52.164;5.282;2022-08-03T07:54:08;31.20;55.70
70149;DHT22;57514;52.164;5.282;2022-08-03T07:56:36;31.60;41.50
70149;DHT22;57514;52.164;5.282;2022-08-03T07:59:03;32.40;56.60
70149;DHT22;57514;52.164;5.282;2022-08-03T08:01:30;31.40;55.90
70149;DHT22;57514;52.164;5.282;2022-08-03T08:06:25;32.40;54.10
70149;DHT22;57514;52.164;5.282;2022-08-03T08:16:15;32.80;53.00
70149;DHT22;57514;52.164;5.282;2022-08-03T08:23:36;34.00;51.50
70149;DHT22;57514;52.164;5.282;2022-08-03T08:26:09;33.60;51.60
70149;DHT22;57514;52.164;5.282;2022-08-03T08:28:36;33.30;50.30
70149;DHT22;57514;52.164;5.282;2022-08-03T08:31:03;33.20;48.30
70149;DHT22;57514;52.164;5.282;2022-08-03T08:33:30;34.70;49.30
70149;DHT22;57514;52.164;5.282;2022-08-03T08:38:45;34.20;49.00
70149;DHT22;57514;52.164;5.282;2022-08-03T08:41:13;35.10;49.90
70149;DHT22;57514;52.164;5.282;2022-08-03T08:43:40;34.40;47.90
70149;DHT22;57514;52.164;5.282;2022-08-03T08:46:11;34.40;38.60
70149;DHT22;57514;52.164;5.282;2022-08-03T08:51:19;36.40;46.10
70149;DHT22;57514;52.164;5.282;2022-08-03T08:53:50;36.20;33.00
70149;DHT22;57514;52.164;5.282;2022-08-03T08:56:18;36.20;44.80
70149;DHT22;57514;52.164;5.282;2022-08-03T08:58:56;36.40;32.30
70149;DHT22;57514;52.164;5.282;2022-08-03T09:01:24;37.20;31.50
70149;DHT22;57514;52.164;5.282;2022-08-03T09:03:51;37.60;31.30
70149;DHT22;57514;52.164;5.282;2022-08-03T09:06:20;37.60;29.50
70149;DHT22;57514;52.164;5.282;2022-08-03T09:08:47;37.40;42.20
70149;DHT22;57514;52.164;5.282;2022-08-03T09:11:14;37.90;31.20
70149;DHT22;57514;52.164;5.282;2022-08-03T09:13:41;36.00;42.40
70149;DHT22;57514;52.164;5.282;2022-08-03T09:18:39;37.50;43.40
70149;DHT22;57514;52.164;5.282;2022-08-03T09:21:13;39.00;31.90
70149;DHT22;57514;52.164;5.282;2022-08-03T09:23:58;36.60;40.80
70149;DHT22;57514;52.164;5.282;2022-08-03T09:26:30;38.20;29.60
70149;DHT22;57514;52.164;5.282;2022-08-03T09:31:44;38.40;28.80
70149;DHT22;57514;52.164;5.282;2022-08-03T09:34:14;38.70;28.40
70149;DHT22;57514;52.164;5.282;2022-08-03T09:36:48;37.40;38.50
70149;DHT22;57514;52.164;5.282;2022-08-03T09:39:20;37.90;27.50
70149;DHT22;57514;52.164;5.282;2022-08-03T09:42:18;35.00;26.40
70149;DHT22;57514;52.164;5.282;2022-08-03T09:44:50;37.20;28.70
70149;DHT22;57514;52.164;5.282;2022-08-03T09:47:34;38.60;26.60
70149;DHT22;57514;52.164;5.282;2022-08-03T09:50:10;38.80;38.70
70149;DHT22;57514;52.164;5.282;2022-08-03T09:52:39;38.30;27.40
70149;DHT22;57514;52.164;5.282;2022-08-03T09:55:16;37.60;38.90
70149;DHT22;57514;52.164;5.282;2022-08-03T09:58:06;38.70;28.60
70149;DHT22;57514;52.164;5.282;2022-08-03T10:00:59;39.60;27.00
70149;DHT22;57514;52.164;5.282;2022-08-03T10:03:31;39.80;35.80
70149;DHT22;57514;52.164;5.282;2022-08-03T10:06:22;39.10;26.70
70149;DHT22;57514;52.164;5.282;2022-08-03T10:09:12;39.30;26.00
70149;DHT22;57514;52.164;5.282;2022-08-03T10:11:41;38.90;26.50
70149;DHT22;57514;52.164;5.282;2022-08-03T10:14:10;38.60;36.60
70149;DHT22;57514;52.164;5.282;2022-08-03T10:16:45;38.80;27.80
70149;DHT22;57514;52.164;5.282;2022-08-03T10:19:12;38.90;27.10
70149;DHT22;57514;52.164;5.282;2022-08-03T10:21:54;39.00;26.70
70149;DHT22;57514;52.164;5.282;2022-08-03T10:24:24;38.60;26.70
70149;DHT22;57514;52.164;5.282;2022-08-03T10:27:03;38.80;27.50
70149;DHT22;57514;52.164;5.282;2022-08-03T10:29:36;39.80;27.30
70149;DHT22;57514;52.164;5.282;2022-08-03T10:32:12;40.00;26.00
70149;DHT22;57514;52.164;5.282;2022-08-03T10:34:41;40.20;25.70
70149;DHT22;57514;52.164;5.282;2022-08-03T10:37:11;40.10;25.50
70149;DHT22;57514;52.164;5.282;2022-08-03T10:39:39;42.90;27.10
70149;DHT22;57514;52.164;5.282;2022-08-03T10:42:23;39.40;25.50
70149;DHT22;57514;52.164;5.282;2022-08-03T10:45:00;39.40;26.40
70149;DHT22;57514;52.164;5.282;2022-08-03T10:47:29;39.70;26.20
70149;DHT22;57514;52.164;5.282;2022-08-03T10:52:25;39.20;24.70
70149;DHT22;57514;52.164;5.282;2022-08-03T10:54:59;38.90;26.10
70149;DHT22;57514;52.164;5.282;2022-08-03T10:57:50;39.00;26.60
70149;DHT22;57514;52.164;5.282;2022-08-03T11:00:26;39.50;26.10
70149;DHT22;57514;52.164;5.282;2022-08-03T11:05:31;39.00;32.90
70149;DHT22;57514;52.164;5.282;2022-08-03T11:10:56;39.80;24.60
70149;DHT22;57514;52.164;5.282;2022-08-03T11:13:25;39.50;25.00
70149;DHT22;57514;52.164;5.282;2022-08-03T11:15:55;41.00;30.90
70149;DHT22;57514;52.164;5.282;2022-08-03T11:18:28;40.80;24.10
70149;DHT22;57514;52.164;5.282;2022-08-03T11:20:58;43.10;24.80
70149;DHT22;57514;52.164;5.282;2022-08-03T11:23:47;41.60;23.50
70149;DHT22;57514;52.164;5.282;2022-08-03T11:26:33;41.90;22.70
70149;DHT22;57514;52.164;5.282;2022-08-03T11:29:25;43.10;31.80
70149;DHT22;57514;52.164;5.282;2022-08-03T11:31:53;41.90;22.70
70149;DHT22;57514;52.164;5.282;2022-08-03T11:34:19;42.50;23.30
70149;DHT22;57514;52.164;5.282;2022-08-03T11:37:18;43.20;23.60
70149;DHT22;57514;52.164;5.282;2022-08-03T11:39:48;44.00;20.40
70149;DHT22;57514;52.164;5.282;2022-08-03T11:44:56;42.70;25.60
70149;DHT22;57514;52.164;5.282;2022-08-03T11:47:23;44.00;19.70
70149;DHT22;57514;52.164;5.282;2022-08-03T11:49:59;43.80;20.40
70149;DHT22;57514;52.164;5.282;2022-08-03T11:52:36;46.40;26.40
70149;DHT22;57514;52.164;5.282;2022-08-03T11:55:08;45.10;19.00
70149;DHT22;57514;52.164;5.282;2022-08-03T11:57:36;45.70;19.20
70149;DHT22;57514;52.164;5.282;2022-08-03T12:00:29;46.10;19.00
70149;DHT22;57514;52.164;5.282;2022-08-03T12:05:53;47.00;18.00
70149;DHT22;57514;52.164;5.282;2022-08-03T12:10:54;45.50;17.50
70149;DHT22;57514;52.164;5.282;2022-08-03T12:13:22;45.00;18.70
70149;DHT22;57514;52.164;5.282;2022-08-03T12:16:09;45.00;18.80
70149;DHT22;57514;52.164;5.282;2022-08-03T12:18:36;45.50;19.30
70149;DHT22;57514;52.164;5.282;2022-08-03T12:21:08;46.20;18.30
70149;DHT22;57514;52.164;5.282;2022-08-03T12:23:36;45.20;17.30
70149;DHT22;57514;52.164;5.282;2022-08-03T12:26:12;44.20;17.90
70149;DHT22;57514;52.164;5.282;2022-08-03T12:28:47;43.60;19.20
70149;DHT22;57514;52.164;5.282;2022-08-03T12:31:15;44.10;20.10
70149;DHT22;57514;52.164;5.282;2022-08-03T12:34:01;44.80;19.10
70149;DHT22;57514;52.164;5.282;2022-08-03T12:36:30;45.30;18.20
70149;DHT22;57514;52.164;5.282;2022-08-03T12:39:05;45.90;18.30
70149;DHT22;57514;52.164;5.282;2022-08-03T12:41:35;46.10;18.70
70149;DHT22;57514;52.164;5.282;2022-08-03T12:44:03;44.00;23.70
70149;DHT22;57514;52.164;5.282;2022-08-03T12:46:36;45.30;18.10
70149;DHT22;57514;52.164;5.282;2022-08-03T12:49:11;44.00;25.00
70149;DHT22;57514;52.164;5.282;2022-08-03T12:54:18;43.40;19.30
70149;DHT22;57514;52.164;5.282;2022-08-03T12:57:01;44.10;20.80
70149;DHT22;57514;52.164;5.282;2022-08-03T12:59:30;43.10;20.10
70149;DHT22;57514;52.164;5.282;2022-08-03T13:02:02;43.40;20.60
70149;DHT22;57514;52.164;5.282;2022-08-03T13:04:35;42.00;21.00
70149;DHT22;57514;52.164;5.282;2022-08-03T13:07:07;41.60;21.40
70149;DHT22;57514;52.164;5.282;2022-08-03T13:09:52;40.60;30.40
70149;DHT22;57514;52.164;5.282;2022-08-03T13:12:25;41.40;29.50
70149;DHT22;57514;52.164;5.282;2022-08-03T13:14:55;41.00;22.00
70149;DHT22;57514;52.164;5.282;2022-08-03T13:17:22;40.60;22.60
70149;DHT22;57514;52.164;5.282;2022-08-03T13:19:50;40.40;23.70
70149;DHT22;57514;52.164;5.282;2022-08-03T13:22:19;40.60;23.30
70149;DHT22;57514;52.164;5.282;2022-08-03T13:24:47;42.80;32.00
70149;DHT22;57514;52.164;5.282;2022-08-03T13:27:15;41.60;22.70
70149;DHT22;57514;52.164;5.282;2022-08-03T13:30:03;42.00;30.10
70149;DHT22;57514;52.164;5.282;2022-08-03T13:32:31;42.30;29.50
70149;DHT22;57514;52.164;5.282;2022-08-03T13:34:59;42.30;22.60
70149;DHT22;57514;52.164;5.282;2022-08-03T13:37:30;42.30;22.50
70149;DHT22;57514;52.164;5.282;2022-08-03T13:39:58;43.10;22.10
70149;DHT22;57514;52.164;5.282;2022-08-03T13:42:32;43.60;29.00
70149;DHT22;57514;52.164;5.282;2022-08-03T13:45:00;43.20;21.40
70149;DHT22;57514;52.164;5.282;2022-08-03T13:47:27;43.10;21.40
70149;DHT22;57514;52.164;5.282;2022-08-03T13:49:54;42.90;21.70
70149;DHT22;57514;52.164;5.282;2022-08-03T13:52:33;43.70;22.30
70149;DHT22;57514;52.164;5.282;2022-08-03T13:55:04;42.80;21.90
70149;DHT22;57514;52.164;5.282;2022-08-03T13:57:31;40.30;31.10
70149;DHT22;57514;52.164;5.282;2022-08-03T14:00:18;40.60;34.70
70149;DHT22;57514;52.164;5.282;2022-08-03T14:02:56;39.00;24.80
70149;DHT22;57514;52.164;5.282;2022-08-03T14:05:31;37.00;34.10
70149;DHT22;57514;52.164;5.282;2022-08-03T14:07:59;33.60;32.70
70149;DHT22;57514;52.164;5.282;2022-08-03T14:10:37;37.80;35.90
70149;DHT22;57514;52.164;5.282;2022-08-03T14:13:05;35.90;35.80
70149;DHT22;57514;52.164;5.282;2022-08-03T14:15:32;37.30;37.80
70149;DHT22;57514;52.164;5.282;2022-08-03T14:18:07;37.00;38.60
70149;DHT22;57514;52.164;5.282;2022-08-03T14:20:42;34.90;37.70
70149;DHT22;57514;52.164;5.282;2022-08-03T14:23:20;34.30;37.80
70149;DHT22;57514;52.164;5.282;2022-08-03T14:25:47;36.70;40.40
70149;DHT22;57514;52.164;5.282;2022-08-03T14:28:20;36.30;39.70
70149;DHT22;57514;52.164;5.282;2022-08-03T14:30:52;35.20;38.70
70149;DHT22;57514;52.164;5.282;2022-08-03T14:33:19;36.50;40.40
70149;DHT22;57514;52.164;5.282;2022-08-03T14:35:46;34.30;39.30
70149;DHT22;57514;52.164;5.282;2022-08-03T14:38:13;36.30;41.20
70149;DHT22;57514;52.164;5.282;2022-08-03T14:40:40;34.20;40.10
70149;DHT22;57514;52.164;5.282;2022-08-03T14:45:34;35.30;42.70
70149;DHT22;57514;52.164;5.282;2022-08-03T14:48:01;33.40;41.40
70149;DHT22;57514;52.164;5.282;2022-08-03T14:50:50;33.60;41.20
70149;DHT22;57514;52.164;5.282;2022-08-03T14:53:18;35.50;42.80
70149;DHT22;57514;52.164;5.282;2022-08-03T14:55:46;33.00;32.60
70149;DHT22;57514;52.164;5.282;2022-08-03T14:58:16;33.80;42.20
70149;DHT22;57514;52.164;5.282;2022-08-03T15:00:48;34.10;29.60
70149;DHT22;57514;52.164;5.282;2022-08-03T15:03:15;32.90;41.90
70149;DHT22;57514;52.164;5.282;2022-08-03T15:05:43;34.10;42.10
70149;DHT22;57514;52.164;5.282;2022-08-03T15:10:40;32.90;30.30
70149;DHT22;57514;52.164;5.282;2022-08-03T15:13:15;34.10;29.70
70149;DHT22;57514;52.164;5.282;2022-08-03T15:15:42;33.00;42.30
70149;DHT22;57514;52.164;5.282;2022-08-03T15:20:36;32.90;42.60
70149;DHT22;57514;52.164;5.282;2022-08-03T15:23:13;34.40;44.50
70149;DHT22;57514;52.164;5.282;2022-08-03T15:25:41;35.10;32.50
70149;DHT22;57514;52.164;5.282;2022-08-03T15:28:29;34.60;45.90
70149;DHT22;57514;52.164;5.282;2022-08-03T15:33:23;32.00;44.20
70149;DHT22;57514;52.164;5.282;2022-08-03T15:35:50;32.30;44.80
70149;DHT22;57514;52.164;5.282;2022-08-03T15:40:45;31.60;46.10
70149;DHT22;57514;52.164;5.282;2022-08-03T15:45:39;31.00;46.40
70149;DHT22;57514;52.164;5.282;2022-08-03T15:53:03;33.40;38.70
70149;DHT22;57514;52.164;5.282;2022-08-03T15:55:30;32.80;48.40
70149;DHT22;57514;52.164;5.282;2022-08-03T15:57:59;31.30;47.60
70149;DHT22;57514;52.164;5.282;2022-08-03T16:00:46;31.80;48.20
70149;DHT22;57514;52.164;5.282;2022-08-03T16:03:13;32.40;48.50
70149;DHT22;57514;52.164;5.282;2022-08-03T16:05:40;33.20;48.90
70149;DHT22;57514;52.164;5.282;2022-08-03T16:08:07;32.70;48.60
70149;DHT22;57514;52.164;5.282;2022-08-03T16:15:34;32.50;48.60
70149;DHT22;57514;52.164;5.282;2022-08-03T16:18:05;32.00;34.40
70149;DHT22;57514;52.164;5.282;2022-08-03T16:20:32;31.30;47.90
70149;DHT22;57514;52.164;5.282;2022-08-03T16:23:02;31.80;48.10
70149;DHT22;57514;52.164;5.282;2022-08-03T16:25:39;31.10;34.80
70149;DHT22;57514;52.164;5.282;2022-08-03T16:28:06;31.70;34.80
70149;DHT22;57514;52.164;5.282;2022-08-03T16:30:41;31.70;35.50
70149;DHT22;57514;52.164;5.282;2022-08-03T16:33:09;31.60;35.50
70149;DHT22;57514;52.164;5.282;2022-08-03T16:35:36;31.20;49.40
70149;DHT22;57514;52.164;5.282;2022-08-03T16:38:03;31.70;35.60
70149;DHT22;57514;52.164;5.282;2022-08-03T16:40:36;30.80;41.00
70149;DHT22;57514;52.164;5.282;2022-08-03T16:43:13;30.50;40.40
70149;DHT22;57514;52.164;5.282;2022-08-03T16:48:12;30.40;49.20
70149;DHT22;57514;52.164;5.282;2022-08-03T16:50:38;31.00;50.00
70149;DHT22;57514;52.164;5.282;2022-08-03T16:53:06;30.30;49.70
70149;DHT22;57514;52.164;5.282;2022-08-03T16:55:35;32.60;37.30
70149;DHT22;57514;52.164;5.282;2022-08-03T16:58:19;30.20;49.80
70149;DHT22;57514;52.164;5.282;2022-08-03T17:01:08;31.50;36.80
70149;DHT22;57514;52.164;5.282;2022-08-03T17:06:35;31.40;37.20
70149;DHT22;57514;52.164;5.282;2022-08-03T17:09:06;30.80;37.90
70149;DHT22;57514;52.164;5.282;2022-08-03T17:11:40;31.30;35.90
70149;DHT22;57514;52.164;5.282;2022-08-03T17:14:16;30.00;50.40
70149;DHT22;57514;52.164;5.282;2022-08-03T17:19:21;31.90;38.50
70149;DHT22;57514;52.164;5.282;2022-08-03T17:21:56;31.10;38.30
70149;DHT22;57514;52.164;5.282;2022-08-03T17:24:37;31.40;52.70
70149;DHT22;57514;52.164;5.282;2022-08-03T17:27:15;30.80;52.20
70149;DHT22;57514;52.164;5.282;2022-08-03T17:30:08;30.10;37.20
70149;DHT22;57514;52.164;5.282;2022-08-03T17:32:40;31.20;51.00
70149;DHT22;57514;52.164;5.282;2022-08-03T17:35:09;30.80;38.50
70149;DHT22;57514;52.164;5.282;2022-08-03T17:37:36;29.50;44.30
70149;DHT22;57514;52.164;5.282;2022-08-03T17:42:51;30.70;53.10
70149;DHT22;57514;52.164;5.282;2022-08-03T17:45:18;32.10;54.40
70149;DHT22;57514;52.164;5.282;2022-08-03T17:47:48;29.30;52.50
70149;DHT22;57514;52.164;5.282;2022-08-03T17:50:32;30.70;53.90
70149;DHT22;57514;52.164;5.282;2022-08-03T17:53:03;29.20;38.10
70149;DHT22;57514;52.164;5.282;2022-08-03T17:56:11;30.50;37.90
70149;DHT22;57514;52.164;5.282;2022-08-03T18:02:09;29.20;52.90
70149;DHT22;57514;52.164;5.282;2022-08-03T18:05:05;31.60;54.90
70149;DHT22;57514;52.164;5.282;2022-08-03T18:07:49;30.40;41.20
70149;DHT22;57514;52.164;5.282;2022-08-03T18:10:33;29.00;52.20
70149;DHT22;57514;52.164;5.282;2022-08-03T18:13:06;31.80;55.30
70149;DHT22;57514;52.164;5.282;2022-08-03T18:15:42;29.70;42.60
70149;DHT22;57514;52.164;5.282;2022-08-03T18:18:15;30.20;40.20
70149;DHT22;57514;52.164;5.282;2022-08-03T18:21:02;31.50;55.90
70149;DHT22;57514;52.164;5.282;2022-08-03T18:23:33;30.70;52.90
70149;DHT22;57514;52.164;5.282;2022-08-03T18:26:06;31.10;45.70
70149;DHT22;57514;52.164;5.282;2022-08-03T18:28:38;29.90;40.60
70149;DHT22;57514;52.164;5.282;2022-08-03T18:31:08;28.60;54.90
70149;DHT22;57514;52.164;5.282;2022-08-03T18:33:39;29.90;41.60
70149;DHT22;57514;52.164;5.282;2022-08-03T18:36:25;28.40;47.30
70149;DHT22;57514;52.164;5.282;2022-08-03T18:38:57;29.50;43.10
70149;DHT22;57514;52.164;5.282;2022-08-03T18:41:26;28.60;55.90
70149;DHT22;57514;52.164;5.282;2022-08-03T18:44:01;30.60;57.70
70149;DHT22;57514;52.164;5.282;2022-08-03T18:47:22;29.40;41.20
70149;DHT22;57514;52.164;5.282;2022-08-03T18:50:02;28.00;56.80
70149;DHT22;57514;52.164;5.282;2022-08-03T18:53:01;27.90;57.30
70149;DHT22;57514;52.164;5.282;2022-08-03T18:56:16;29.60;59.00
70149;DHT22;57514;52.164;5.282;2022-08-03T18:58:59;28.40;56.70
70149;DHT22;57514;52.164;5.282;2022-08-03T19:01:35;29.80;60.00
70149;DHT22;57514;52.164;5.282;2022-08-03T19:04:46;28.60;43.50
70149;DHT22;57514;52.164;5.282;2022-08-03T19:07:17;27.80;59.40
70149;DHT22;57514;52.164;5.282;2022-08-03T19:09:58;28.40;60.40
70149;DHT22;57514;52.164;5.282;2022-08-03T19:12:41;26.90;44.40
70149;DHT22;57514;52.164;5.282;2022-08-03T19:15:12;28.20;50.00
70149;DHT22;57514;52.164;5.282;2022-08-03T19:17:49;29.30;55.80
70149;DHT22;57514;52.164;5.282;2022-08-03T19:20:24;28.70;61.70
70149;DHT22;57514;52.164;5.282;2022-08-03T19:22:54;27.90;47.60
70149;DHT22;57514;52.164;5.282;2022-08-03T19:25:21;26.70;59.50
70149;DHT22;57514;52.164;5.282;2022-08-03T19:28:02;29.00;63.70
70149;DHT22;57514;52.164;5.282;2022-08-03T19:30:37;26.30;62.30
70149;DHT22;57514;52.164;5.282;2022-08-03T19:33:10;27.40;55.70
70149;DHT22;57514;52.164;5.282;2022-08-03T19:35:42;28.60;65.20